»·PEaware :: N8068C KTRM-KMYF

N8068C :: KTRM-KMYF

FLIGHT INFORMATION

Flight Status: Arrived
Operator: Privately registered:
United States
More flights under this callsign
Pilot: Ryan B. (29)
Aircraft: Unknown
(LNC4)
More flights by this aircraft type
Origin: KTRM Desert Resorts Regl
United States
Destination: KMYF Montgomery
United States
More flights between these airports :: More routes between these airports
Route: TRM V208 JLI HAILE
File this flight plan on PilotEdge
Remarks: charts / V /
Altitude:
(Current/Filed)
100ft
Speed:
(Current/Filed)
220kts
Departed: 06-Jul-11 05:24 PM
Arrived: 06-Jul-11 05:53 PM
Distance/Time
Traveled:
69nm/0:29
Distance/Time
To Go:
Arrived

Flight Plot

Page will automatically refresh every two minutes.


Map Options




Map Legend


Flown Route
Filed Route
Departure Airport
Arrival Airport
Navaid (VOR, NDB)
Fix

Horizontal Profiles

Position Reports

Time Latitude Longitude Heading Altitude Ground
Speed
06-Jul-11 16:35 33.634697 -116.159318 269 -109ft 0kts
06-Jul-11 16:36 33.634697 -116.159320 269 -109ft 0kts
06-Jul-11 16:37 33.634697 -116.159322 269 -109ft 0kts
06-Jul-11 16:38 33.634697 -116.159325 268 -109ft 0kts
06-Jul-11 16:39 33.634696 -116.159327 268 -109ft 0kts
06-Jul-11 16:41 33.634696 -116.159331 268 -109ft 0kts
06-Jul-11 16:42 33.634696 -116.159333 268 -109ft 0kts
06-Jul-11 16:43 33.634696 -116.159335 268 -109ft 0kts
06-Jul-11 16:44 33.634696 -116.159337 267 -109ft 0kts
06-Jul-11 16:45 33.634696 -116.159339 267 -109ft 0kts
06-Jul-11 16:46 33.634696 -116.159341 267 -109ft 0kts
06-Jul-11 16:47 33.634696 -116.159344 267 -109ft 0kts
06-Jul-11 16:48 33.634696 -116.159346 267 -109ft 0kts
06-Jul-11 16:49 33.634696 -116.159348 267 -109ft 0kts
06-Jul-11 16:50 33.634695 -116.159350 266 -109ft 0kts
06-Jul-11 16:51 33.634695 -116.159352 266 -109ft 0kts
06-Jul-11 16:52 33.634695 -116.159354 266 -109ft 0kts
06-Jul-11 16:53 33.634695 -116.159357 266 -109ft 0kts
06-Jul-11 16:54 33.634695 -116.159359 266 -109ft 0kts
06-Jul-11 16:55 33.634695 -116.159361 266 -109ft 0kts
06-Jul-11 16:56 33.634695 -116.159363 265 -109ft 0kts
06-Jul-11 16:57 33.634694 -116.159365 265 -109ft 0kts
06-Jul-11 16:58 33.634694 -116.159368 265 -109ft 0kts
06-Jul-11 16:59 33.634694 -116.159370 265 -109ft 0kts
06-Jul-11 17:00 33.634694 -116.159372 265 -109ft 0kts
06-Jul-11 17:01 33.634694 -116.159374 265 -109ft 0kts
06-Jul-11 17:02 33.634694 -116.159376 264 -109ft 0kts
06-Jul-11 17:03 33.634693 -116.159378 264 -109ft 0kts
06-Jul-11 17:04 33.634693 -116.159381 264 -109ft 0kts
06-Jul-11 17:05 33.634693 -116.159383 264 -109ft 0kts
06-Jul-11 17:07 33.634693 -116.159387 263 -109ft 0kts
06-Jul-11 17:10 33.634692 -116.159394 263 -109ft 0kts
06-Jul-11 17:11 33.634692 -116.159396 262 -109ft 0kts
06-Jul-11 17:12 33.634691 -116.159398 262 -109ft 0kts
06-Jul-11 17:13 33.634691 -116.159400 262 -109ft 0kts
06-Jul-11 17:14 33.634691 -116.159403 262 -109ft 0kts
06-Jul-11 17:15 33.634691 -116.159405 262 -109ft 0kts
06-Jul-11 17:16 33.634690 -116.159407 262 -109ft 0kts
06-Jul-11 17:17 33.634690 -116.159409 261 -109ft 0kts
06-Jul-11 17:18 33.634690 -116.159411 261 -109ft 0kts
06-Jul-11 17:19 33.634653 -116.157089 88 -109ft 11kts
06-Jul-11 17:20 33.634654 -116.157013 88 -109ft 0kts
06-Jul-11 17:21 33.634654 -116.157012 88 -109ft 0kts
06-Jul-11 17:22 33.632970 -116.156358 182 -109ft 57kts
06-Jul-11 17:23 33.603816 -116.167265 230 895ft 129kts
06-Jul-11 17:24 33.581311 -116.202069 203 2672ft 139kts
06-Jul-11 17:25 33.579542 -116.235048 343 4373ft 144kts
06-Jul-11 17:26 33.590456 -116.202818 143 6029ft 151kts
06-Jul-11 17:27 33.557057 -116.223163 209 7310ft 154kts
06-Jul-11 17:28 33.521427 -116.252838 214 8326ft 157kts
06-Jul-11 17:29 33.485602 -116.283854 215 9329ft 159kts
06-Jul-11 17:30 33.449142 -116.315331 216 10001ft 174kts
06-Jul-11 17:31 33.405234 -116.353383 216 10006ft 208kts
06-Jul-11 17:32 33.356660 -116.395551 216 10002ft 220kts
06-Jul-11 17:33 33.306446 -116.439090 216 10003ft 224kts
06-Jul-11 17:34 33.255888 -116.482815 216 10040ft 224kts
06-Jul-11 17:35 33.205003 -116.526866 216 10023ft 226kts
06-Jul-11 17:36 33.153831 -116.571046 216 10001ft 226kts
06-Jul-11 17:37 33.104628 -116.617693 228 10000ft 225kts
06-Jul-11 17:38 33.065529 -116.674098 215 9758ft 219kts
06-Jul-11 17:39 33.019467 -116.718787 202 8766ft 215kts
06-Jul-11 17:40 32.964126 -116.745192 203 7750ft 211kts
06-Jul-11 17:41 32.910191 -116.773740 204 6746ft 210kts
06-Jul-11 17:42 32.857151 -116.801922 203 5741ft 204kts
06-Jul-11 17:43 32.806111 -116.828922 204 5202ft 192kts
06-Jul-11 17:44 32.759813 -116.856447 212 4742ft 189kts
06-Jul-11 17:45 32.726365 -116.899871 264 4169ft 174kts
06-Jul-11 17:46 32.743007 -116.953962 294 3593ft 170kts
06-Jul-11 17:47 32.764310 -117.008138 294 2664ft 185kts
06-Jul-11 17:48 32.786172 -117.063359 293 2029ft 178kts
06-Jul-11 17:49 32.806299 -117.113771 294 1951ft 161kts
06-Jul-11 17:50 32.812931 -117.114348 223 1303ft 140kts
06-Jul-11 17:51 32.816025 -117.140803 240 431ft 1kts
06-Jul-11 17:52 32.815136 -117.142607 121 431ft 6kts
06-Jul-11 17:53 32.813108 -117.141065 99 431ft 0kts

Navigation Log

Ident Type
Flight plan parsing failed, navigation log unavailable